sensor_id;sensor_type;location;lat;lon;timestamp;P1;durP1;ratioP1;P2;durP2;ratioP2
74791;SDS011;63319;46.046;17.802;2022-10-31T00:03:00;6.05;;;3.90;;
74791;SDS011;63319;46.046;17.802;2022-10-31T00:06:03;5.80;;;3.50;;
74791;SDS011;63319;46.046;17.802;2022-10-31T00:09:08;5.33;;;3.47;;
74791;SDS011;63319;46.046;17.802;2022-10-31T00:12:11;5.70;;;3.53;;
74791;SDS011;63319;46.046;17.802;2022-10-31T00:15:14;6.18;;;4.10;;
74791;SDS011;63319;46.046;17.802;2022-10-31T00:18:17;6.47;;;4.38;;
74791;SDS011;63319;46.046;17.802;2022-10-31T00:21:25;6.03;;;3.73;;
74791;SDS011;63319;46.046;17.802;2022-10-31T00:24:32;6.73;;;4.23;;
74791;SDS011;63319;46.046;17.802;2022-10-31T00:27:35;6.38;;;4.45;;
74791;SDS011;63319;46.046;17.802;2022-10-31T00:30:39;5.85;;;3.78;;
74791;SDS011;63319;46.046;17.802;2022-10-31T00:33:50;6.68;;;4.18;;
74791;SDS011;63319;46.046;17.802;2022-10-31T00:36:53;5.87;;;3.90;;
74791;SDS011;63319;46.046;17.802;2022-10-31T00:40:07;6.43;;;3.77;;
74791;SDS011;63319;46.046;17.802;2022-10-31T00:43:13;6.90;;;4.53;;
74791;SDS011;63319;46.046;17.802;2022-10-31T00:46:16;6.85;;;4.82;;
74791;SDS011;63319;46.046;17.802;2022-10-31T00:49:23;5.93;;;3.83;;
74791;SDS011;63319;46.046;17.802;2022-10-31T00:52:26;5.70;;;3.87;;
74791;SDS011;63319;46.046;17.802;2022-10-31T00:55:43;6.33;;;4.57;;
74791;SDS011;63319;46.046;17.802;2022-10-31T00:58:52;6.53;;;4.22;;
74791;SDS011;63319;46.046;17.802;2022-10-31T01:01:56;6.30;;;4.05;;
74791;SDS011;63319;46.046;17.802;2022-10-31T01:04:59;6.40;;;4.50;;
74791;SDS011;63319;46.046;17.802;2022-10-31T01:08:02;6.00;;;3.70;;
74791;SDS011;63319;46.046;17.802;2022-10-31T01:11:06;6.27;;;4.43;;
74791;SDS011;63319;46.046;17.802;2022-10-31T01:14:15;7.47;;;5.28;;
74791;SDS011;63319;46.046;17.802;2022-10-31T01:17:21;6.18;;;3.92;;
74791;SDS011;63319;46.046;17.802;2022-10-31T01:20:29;6.95;;;4.78;;
74791;SDS011;63319;46.046;17.802;2022-10-31T01:23:32;5.70;;;3.60;;
74791;SDS011;63319;46.046;17.802;2022-10-31T01:26:38;6.77;;;4.20;;
74791;SDS011;63319;46.046;17.802;2022-10-31T01:29:41;6.40;;;4.18;;
74791;SDS011;63319;46.046;17.802;2022-10-31T01:32:43;6.72;;;4.30;;
74791;SDS011;63319;46.046;17.802;2022-10-31T01:35:46;6.20;;;4.38;;
74791;SDS011;63319;46.046;17.802;2022-10-31T01:38:51;6.33;;;4.10;;
74791;SDS011;63319;46.046;17.802;2022-10-31T01:41:55;6.17;;;3.93;;
74791;SDS011;63319;46.046;17.802;2022-10-31T01:44:59;6.45;;;4.32;;
74791;SDS011;63319;46.046;17.802;2022-10-31T01:48:18;6.53;;;4.30;;
74791;SDS011;63319;46.046;17.802;2022-10-31T01:51:36;6.30;;;4.22;;
74791;SDS011;63319;46.046;17.802;2022-10-31T01:55:09;5.80;;;4.00;;
74791;SDS011;63319;46.046;17.802;2022-10-31T01:58:31;6.10;;;4.17;;
74791;SDS011;63319;46.046;17.802;2022-10-31T02:01:35;6.20;;;4.28;;
74791;SDS011;63319;46.046;17.802;2022-10-31T02:04:40;6.50;;;4.30;;
74791;SDS011;63319;46.046;17.802;2022-10-31T02:11:24;6.47;;;4.30;;
74791;SDS011;63319;46.046;17.802;2022-10-31T02:14:28;7.47;;;4.97;;
74791;SDS011;63319;46.046;17.802;2022-10-31T02:17:38;6.40;;;4.40;;
74791;SDS011;63319;46.046;17.802;2022-10-31T02:31:04;6.73;;;4.40;;
74791;SDS011;63319;46.046;17.802;2022-10-31T02:40:47;6.60;;;4.40;;
74791;SDS011;63319;46.046;17.802;2022-10-31T02:47:38;5.80;;;3.87;;
74791;SDS011;63319;46.046;17.802;2022-10-31T02:50:55;6.30;;;4.30;;
74791;SDS011;63319;46.046;17.802;2022-10-31T02:54:03;6.13;;;4.10;;
74791;SDS011;63319;46.046;17.802;2022-10-31T02:57:06;6.50;;;4.63;;
74791;SDS011;63319;46.046;17.802;2022-10-31T03:00:10;6.10;;;3.80;;
74791;SDS011;63319;46.046;17.802;2022-10-31T03:03:17;6.43;;;4.00;;
74791;SDS011;63319;46.046;17.802;2022-10-31T03:09:46;6.57;;;4.55;;
74791;SDS011;63319;46.046;17.802;2022-10-31T03:13:15;6.40;;;4.47;;
74791;SDS011;63319;46.046;17.802;2022-10-31T03:16:47;5.60;;;3.70;;
74791;SDS011;63319;46.046;17.802;2022-10-31T03:19:52;6.13;;;4.10;;
74791;SDS011;63319;46.046;17.802;2022-10-31T03:22:57;5.78;;;4.18;;
74791;SDS011;63319;46.046;17.802;2022-10-31T03:26:04;5.82;;;4.40;;
74791;SDS011;63319;46.046;17.802;2022-10-31T03:29:13;6.25;;;4.22;;
74791;SDS011;63319;46.046;17.802;2022-10-31T03:32:29;6.10;;;4.00;;
74791;SDS011;63319;46.046;17.802;2022-10-31T03:35:39;6.33;;;4.13;;
74791;SDS011;63319;46.046;17.802;2022-10-31T03:38:46;6.35;;;3.95;;
74791;SDS011;63319;46.046;17.802;2022-10-31T03:45:26;5.90;;;3.83;;
74791;SDS011;63319;46.046;17.802;2022-10-31T03:48:35;6.07;;;4.00;;
74791;SDS011;63319;46.046;17.802;2022-10-31T03:55:17;6.25;;;4.18;;
74791;SDS011;63319;46.046;17.802;2022-10-31T03:58:27;5.68;;;3.88;;
74791;SDS011;63319;46.046;17.802;2022-10-31T04:01:41;5.90;;;4.20;;
74791;SDS011;63319;46.046;17.802;2022-10-31T04:05:04;5.90;;;3.87;;
74791;SDS011;63319;46.046;17.802;2022-10-31T04:08:27;6.43;;;4.00;;
74791;SDS011;63319;46.046;17.802;2022-10-31T04:11:36;5.90;;;3.92;;
74791;SDS011;63319;46.046;17.802;2022-10-31T04:15:08;5.20;;;3.30;;
74791;SDS011;63319;46.046;17.802;2022-10-31T04:18:17;5.10;;;3.50;;
74791;SDS011;63319;46.046;17.802;2022-10-31T04:21:25;5.37;;;3.37;;
74791;SDS011;63319;46.046;17.802;2022-10-31T04:24:45;6.37;;;4.10;;
74791;SDS011;63319;46.046;17.802;2022-10-31T04:27:50;5.78;;;3.85;;
74791;SDS011;63319;46.046;17.802;2022-10-31T04:30:55;5.63;;;3.63;;
74791;SDS011;63319;46.046;17.802;2022-10-31T04:34:12;5.70;;;3.95;;
74791;SDS011;63319;46.046;17.802;2022-10-31T04:37:16;5.40;;;3.53;;
74791;SDS011;63319;46.046;17.802;2022-10-31T04:40:19;5.90;;;4.03;;
74791;SDS011;63319;46.046;17.802;2022-10-31T04:43:54;6.32;;;3.95;;
74791;SDS011;63319;46.046;17.802;2022-10-31T04:46:58;7.15;;;3.78;;
74791;SDS011;63319;46.046;17.802;2022-10-31T04:50:01;5.65;;;3.72;;
74791;SDS011;63319;46.046;17.802;2022-10-31T04:53:11;6.53;;;4.27;;
74791;SDS011;63319;46.046;17.802;2022-10-31T04:56:36;5.60;;;3.87;;
74791;SDS011;63319;46.046;17.802;2022-10-31T04:59:51;6.20;;;3.75;;
74791;SDS011;63319;46.046;17.802;2022-10-31T05:02:58;5.55;;;3.70;;
74791;SDS011;63319;46.046;17.802;2022-10-31T05:06:05;5.82;;;3.88;;
74791;SDS011;63319;46.046;17.802;2022-10-31T05:09:09;6.33;;;4.10;;
74791;SDS011;63319;46.046;17.802;2022-10-31T05:12:12;5.30;;;3.53;;
74791;SDS011;63319;46.046;17.802;2022-10-31T05:15:34;6.22;;;4.05;;
74791;SDS011;63319;46.046;17.802;2022-10-31T05:19:06;6.03;;;3.88;;
74791;SDS011;63319;46.046;17.802;2022-10-31T05:22:35;5.90;;;3.88;;
74791;SDS011;63319;46.046;17.802;2022-10-31T05:25:39;6.00;;;3.70;;
74791;SDS011;63319;46.046;17.802;2022-10-31T05:28:43;6.07;;;4.00;;
74791;SDS011;63319;46.046;17.802;2022-10-31T05:31:46;5.38;;;3.40;;
74791;SDS011;63319;46.046;17.802;2022-10-31T05:35:11;5.50;;;3.67;;
74791;SDS011;63319;46.046;17.802;2022-10-31T05:38:42;5.45;;;3.80;;
74791;SDS011;63319;46.046;17.802;2022-10-31T05:41:54;5.90;;;3.13;;
74791;SDS011;63319;46.046;17.802;2022-10-31T05:45:01;5.50;;;3.77;;
74791;SDS011;63319;46.046;17.802;2022-10-31T05:48:18;5.68;;;3.55;;
74791;SDS011;63319;46.046;17.802;2022-10-31T05:51:40;5.28;;;3.42;;
74791;SDS011;63319;46.046;17.802;2022-10-31T05:54:44;5.43;;;3.60;;
74791;SDS011;63319;46.046;17.802;2022-10-31T05:57:46;6.00;;;4.10;;
74791;SDS011;63319;46.046;17.802;2022-10-31T06:00:49;5.47;;;3.50;;
74791;SDS011;63319;46.046;17.802;2022-10-31T06:03:52;6.32;;;4.50;;
74791;SDS011;63319;46.046;17.802;2022-10-31T06:06:57;6.32;;;4.05;;
74791;SDS011;63319;46.046;17.802;2022-10-31T06:10:01;6.32;;;3.97;;
74791;SDS011;63319;46.046;17.802;2022-10-31T06:13:05;5.47;;;3.70;;
74791;SDS011;63319;46.046;17.802;2022-10-31T06:16:17;5.53;;;3.63;;
74791;SDS011;63319;46.046;17.802;2022-10-31T06:19:21;5.53;;;3.90;;
74791;SDS011;63319;46.046;17.802;2022-10-31T06:22:23;5.35;;;3.42;;
74791;SDS011;63319;46.046;17.802;2022-10-31T06:25:27;5.70;;;3.75;;
74791;SDS011;63319;46.046;17.802;2022-10-31T06:28:30;6.03;;;3.83;;
74791;SDS011;63319;46.046;17.802;2022-10-31T06:31:47;5.93;;;3.80;;
74791;SDS011;63319;46.046;17.802;2022-10-31T06:34:57;5.07;;;3.03;;
74791;SDS011;63319;46.046;17.802;2022-10-31T06:38:00;5.57;;;3.63;;
74791;SDS011;63319;46.046;17.802;2022-10-31T06:41:12;5.22;;;3.50;;
74791;SDS011;63319;46.046;17.802;2022-10-31T06:44:22;5.40;;;3.60;;
74791;SDS011;63319;46.046;17.802;2022-10-31T06:47:34;5.97;;;3.93;;
74791;SDS011;63319;46.046;17.802;2022-10-31T06:51:01;5.68;;;3.70;;
74791;SDS011;63319;46.046;17.802;2022-10-31T06:54:05;5.60;;;3.75;;
74791;SDS011;63319;46.046;17.802;2022-10-31T06:57:11;5.10;;;3.20;;
74791;SDS011;63319;46.046;17.802;2022-10-31T07:00:14;5.47;;;3.33;;
74791;SDS011;63319;46.046;17.802;2022-10-31T07:03:20;5.37;;;3.43;;
74791;SDS011;63319;46.046;17.802;2022-10-31T07:06:26;5.10;;;3.38;;
74791;SDS011;63319;46.046;17.802;2022-10-31T07:09:29;5.18;;;3.20;;
74791;SDS011;63319;46.046;17.802;2022-10-31T07:12:36;6.00;;;3.83;;
74791;SDS011;63319;46.046;17.802;2022-10-31T07:15:39;6.10;;;3.57;;
74791;SDS011;63319;46.046;17.802;2022-10-31T07:18:43;5.60;;;3.40;;
74791;SDS011;63319;46.046;17.802;2022-10-31T07:21:47;5.65;;;3.60;;
74791;SDS011;63319;46.046;17.802;2022-10-31T07:24:50;5.32;;;3.47;;
74791;SDS011;63319;46.046;17.802;2022-10-31T07:27:53;4.97;;;3.30;;
74791;SDS011;63319;46.046;17.802;2022-10-31T07:30:56;5.30;;;3.60;;
74791;SDS011;63319;46.046;17.802;2022-10-31T07:34:03;5.40;;;3.77;;
74791;SDS011;63319;46.046;17.802;2022-10-31T07:37:26;5.43;;;3.60;;
74791;SDS011;63319;46.046;17.802;2022-10-31T07:40:30;5.35;;;3.42;;
74791;SDS011;63319;46.046;17.802;2022-10-31T07:43:33;4.85;;;3.13;;
74791;SDS011;63319;46.046;17.802;2022-10-31T07:46:51;4.67;;;3.23;;
74791;SDS011;63319;46.046;17.802;2022-10-31T07:50:15;5.40;;;3.10;;
74791;SDS011;63319;46.046;17.802;2022-10-31T07:53:52;5.40;;;3.40;;
74791;SDS011;63319;46.046;17.802;2022-10-31T07:56:59;6.40;;;3.40;;
74791;SDS011;63319;46.046;17.802;2022-10-31T08:00:04;6.00;;;3.80;;
74791;SDS011;63319;46.046;17.802;2022-10-31T08:03:17;4.93;;;2.90;;
74791;SDS011;63319;46.046;17.802;2022-10-31T08:06:39;5.90;;;3.97;;
74791;SDS011;63319;46.046;17.802;2022-10-31T08:09:53;5.25;;;3.40;;
74791;SDS011;63319;46.046;17.802;2022-10-31T08:13:05;5.70;;;3.50;;
74791;SDS011;63319;46.046;17.802;2022-10-31T08:16:12;5.95;;;3.65;;
74791;SDS011;63319;46.046;17.802;2022-10-31T08:19:26;5.43;;;3.80;;
74791;SDS011;63319;46.046;17.802;2022-10-31T08:22:30;5.70;;;3.70;;
74791;SDS011;63319;46.046;17.802;2022-10-31T08:25:38;5.35;;;3.58;;
74791;SDS011;63319;46.046;17.802;2022-10-31T08:28:42;5.07;;;3.08;;
74791;SDS011;63319;46.046;17.802;2022-10-31T08:31:45;5.22;;;3.40;;
74791;SDS011;63319;46.046;17.802;2022-10-31T08:35:26;5.13;;;3.30;;
74791;SDS011;63319;46.046;17.802;2022-10-31T08:38:50;5.20;;;3.47;;
74791;SDS011;63319;46.046;17.802;2022-10-31T08:41:53;5.43;;;3.08;;
74791;SDS011;63319;46.046;17.802;2022-10-31T08:44:56;5.03;;;3.38;;
74791;SDS011;63319;46.046;17.802;2022-10-31T08:48:02;5.20;;;3.22;;
74791;SDS011;63319;46.046;17.802;2022-10-31T08:51:08;5.60;;;3.83;;
74791;SDS011;63319;46.046;17.802;2022-10-31T08:54:12;5.13;;;3.13;;
74791;SDS011;63319;46.046;17.802;2022-10-31T08:57:34;5.75;;;3.80;;
74791;SDS011;63319;46.046;17.802;2022-10-31T09:00:37;4.80;;;3.17;;
74791;SDS011;63319;46.046;17.802;2022-10-31T09:03:49;5.38;;;3.50;;
74791;SDS011;63319;46.046;17.802;2022-10-31T09:06:51;5.10;;;3.37;;
74791;SDS011;63319;46.046;17.802;2022-10-31T09:10:14;5.37;;;3.60;;
74791;SDS011;63319;46.046;17.802;2022-10-31T09:13:20;4.82;;;3.13;;
74791;SDS011;63319;46.046;17.802;2022-10-31T09:16:51;5.60;;;3.35;;
74791;SDS011;63319;46.046;17.802;2022-10-31T09:19:58;6.35;;;3.40;;
74791;SDS011;63319;46.046;17.802;2022-10-31T09:23:07;5.50;;;3.07;;
74791;SDS011;63319;46.046;17.802;2022-10-31T09:26:16;5.27;;;3.47;;
74791;SDS011;63319;46.046;17.802;2022-10-31T09:29:38;5.68;;;3.40;;
74791;SDS011;63319;46.046;17.802;2022-10-31T09:32:46;5.35;;;3.20;;
74791;SDS011;63319;46.046;17.802;2022-10-31T09:35:49;5.05;;;3.30;;
74791;SDS011;63319;46.046;17.802;2022-10-31T09:38:55;5.30;;;3.30;;
74791;SDS011;63319;46.046;17.802;2022-10-31T09:57:21;5.53;;;3.60;;
74791;SDS011;63319;46.046;17.802;2022-10-31T10:10:14;5.13;;;3.13;;
74791;SDS011;63319;46.046;17.802;2022-10-31T10:17:38;5.15;;;3.50;;
74791;SDS011;63319;46.046;17.802;2022-10-31T10:20:54;5.60;;;3.27;;
74791;SDS011;63319;46.046;17.802;2022-10-31T10:24:33;5.20;;;3.60;;
74791;SDS011;63319;46.046;17.802;2022-10-31T10:31:41;5.07;;;2.95;;
74791;SDS011;63319;46.046;17.802;2022-10-31T10:34:49;5.68;;;3.63;;
74791;SDS011;63319;46.046;17.802;2022-10-31T10:41:45;5.95;;;3.40;;
74791;SDS011;63319;46.046;17.802;2022-10-31T10:45:16;5.47;;;3.20;;
74791;SDS011;63319;46.046;17.802;2022-10-31T10:55:53;5.23;;;3.30;;
74791;SDS011;63319;46.046;17.802;2022-10-31T10:59:04;5.00;;;2.97;;
74791;SDS011;63319;46.046;17.802;2022-10-31T11:02:31;5.97;;;3.47;;
74791;SDS011;63319;46.046;17.802;2022-10-31T11:08:41;5.25;;;3.60;;
74791;SDS011;63319;46.046;17.802;2022-10-31T11:11:44;5.00;;;3.00;;
74791;SDS011;63319;46.046;17.802;2022-10-31T11:14:54;5.22;;;3.08;;
74791;SDS011;63319;46.046;17.802;2022-10-31T11:18:01;5.75;;;3.53;;
74791;SDS011;63319;46.046;17.802;2022-10-31T11:21:04;5.32;;;3.22;;
74791;SDS011;63319;46.046;17.802;2022-10-31T11:30:20;5.10;;;3.35;;
74791;SDS011;63319;46.046;17.802;2022-10-31T11:33:27;5.65;;;3.25;;
74791;SDS011;63319;46.046;17.802;2022-10-31T11:36:36;5.13;;;3.33;;
74791;SDS011;63319;46.046;17.802;2022-10-31T11:39:42;4.78;;;2.90;;
74791;SDS011;63319;46.046;17.802;2022-10-31T11:42:47;5.80;;;3.27;;
74791;SDS011;63319;46.046;17.802;2022-10-31T11:45:51;5.15;;;3.00;;
74791;SDS011;63319;46.046;17.802;2022-10-31T11:48:54;5.05;;;3.20;;
74791;SDS011;63319;46.046;17.802;2022-10-31T11:51:59;4.47;;;2.80;;
74791;SDS011;63319;46.046;17.802;2022-10-31T11:58:37;4.80;;;3.20;;
74791;SDS011;63319;46.046;17.802;2022-10-31T12:01:46;5.18;;;3.20;;
74791;SDS011;63319;46.046;17.802;2022-10-31T12:04:54;4.72;;;3.05;;
74791;SDS011;63319;46.046;17.802;2022-10-31T12:08:00;5.75;;;3.40;;
74791;SDS011;63319;46.046;17.802;2022-10-31T12:45:34;5.85;;;3.60;;
74791;SDS011;63319;46.046;17.802;2022-10-31T12:58:40;5.88;;;3.25;;
74791;SDS011;63319;46.046;17.802;2022-10-31T13:01:54;5.18;;;3.17;;
74791;SDS011;63319;46.046;17.802;2022-10-31T13:05:22;5.17;;;3.37;;
74791;SDS011;63319;46.046;17.802;2022-10-31T13:08:36;5.57;;;3.55;;
74791;SDS011;63319;46.046;17.802;2022-10-31T13:11:57;5.40;;;3.38;;
74791;SDS011;63319;46.046;17.802;2022-10-31T13:15:05;5.88;;;3.28;;
74791;SDS011;63319;46.046;17.802;2022-10-31T13:18:30;4.82;;;3.20;;
74791;SDS011;63319;46.046;17.802;2022-10-31T13:21:53;5.63;;;3.47;;
74791;SDS011;63319;46.046;17.802;2022-10-31T13:31:32;5.13;;;3.10;;
74791;SDS011;63319;46.046;17.802;2022-10-31T13:34:42;5.43;;;3.25;;
74791;SDS011;63319;46.046;17.802;2022-10-31T13:38:01;5.50;;;3.40;;
74791;SDS011;63319;46.046;17.802;2022-10-31T13:44:52;5.05;;;3.15;;
74791;SDS011;63319;46.046;17.802;2022-10-31T13:47:56;6.18;;;3.60;;
74791;SDS011;63319;46.046;17.802;2022-10-31T13:51:07;4.50;;;2.72;;
74791;SDS011;63319;46.046;17.802;2022-10-31T13:54:22;5.50;;;3.30;;
74791;SDS011;63319;46.046;17.802;2022-10-31T13:57:43;4.75;;;3.13;;
74791;SDS011;63319;46.046;17.802;2022-10-31T14:00:57;5.10;;;3.22;;
74791;SDS011;63319;46.046;17.802;2022-10-31T14:04:14;5.80;;;3.47;;
74791;SDS011;63319;46.046;17.802;2022-10-31T14:07:26;5.57;;;3.28;;
74791;SDS011;63319;46.046;17.802;2022-10-31T14:10:38;5.30;;;3.20;;
74791;SDS011;63319;46.046;17.802;2022-10-31T14:13:48;5.50;;;3.38;;
74791;SDS011;63319;46.046;17.802;2022-10-31T14:16:55;5.75;;;3.60;;
74791;SDS011;63319;46.046;17.802;2022-10-31T14:26:33;6.00;;;3.43;;
74791;SDS011;63319;46.046;17.802;2022-10-31T14:29:39;6.63;;;3.97;;
74791;SDS011;63319;46.046;17.802;2022-10-31T14:32:41;5.30;;;3.50;;
74791;SDS011;63319;46.046;17.802;2022-10-31T14:49:24;5.88;;;4.10;;
74791;SDS011;63319;46.046;17.802;2022-10-31T14:52:49;6.47;;;3.83;;
74791;SDS011;63319;46.046;17.802;2022-10-31T14:55:55;5.63;;;3.10;;
74791;SDS011;63319;46.046;17.802;2022-10-31T14:59:08;5.73;;;3.20;;
74791;SDS011;63319;46.046;17.802;2022-10-31T15:02:30;6.00;;;3.70;;
74791;SDS011;63319;46.046;17.802;2022-10-31T15:05:45;6.68;;;3.83;;
74791;SDS011;63319;46.046;17.802;2022-10-31T15:08:53;5.50;;;3.60;;
74791;SDS011;63319;46.046;17.802;2022-10-31T15:12:00;6.47;;;3.90;;
74791;SDS011;63319;46.046;17.802;2022-10-31T15:15:25;6.27;;;3.80;;
74791;SDS011;63319;46.046;17.802;2022-10-31T15:18:28;7.68;;;3.63;;
74791;SDS011;63319;46.046;17.802;2022-10-31T15:21:44;6.47;;;3.83;;
74791;SDS011;63319;46.046;17.802;2022-10-31T15:24:57;5.72;;;3.58;;
74791;SDS011;63319;46.046;17.802;2022-10-31T15:28:12;7.15;;;4.18;;
74791;SDS011;63319;46.046;17.802;2022-10-31T15:31:16;6.37;;;3.63;;
74791;SDS011;63319;46.046;17.802;2022-10-31T15:34:24;6.30;;;4.30;;
74791;SDS011;63319;46.046;17.802;2022-10-31T15:37:34;6.00;;;3.97;;
74791;SDS011;63319;46.046;17.802;2022-10-31T15:40:40;7.30;;;4.20;;
74791;SDS011;63319;46.046;17.802;2022-10-31T15:43:58;7.40;;;4.85;;
74791;SDS011;63319;46.046;17.802;2022-10-31T15:47:17;6.40;;;3.80;;
74791;SDS011;63319;46.046;17.802;2022-10-31T15:50:37;6.88;;;4.45;;
74791;SDS011;63319;46.046;17.802;2022-10-31T15:53:49;7.38;;;5.03;;
74791;SDS011;63319;46.046;17.802;2022-10-31T15:56:54;7.20;;;4.63;;
74791;SDS011;63319;46.046;17.802;2022-10-31T15:59:57;6.30;;;4.05;;
74791;SDS011;63319;46.046;17.802;2022-10-31T16:06:28;6.30;;;3.80;;
74791;SDS011;63319;46.046;17.802;2022-10-31T16:09:31;7.03;;;4.60;;
74791;SDS011;63319;46.046;17.802;2022-10-31T16:12:37;6.90;;;4.20;;
74791;SDS011;63319;46.046;17.802;2022-10-31T16:15:51;7.72;;;5.32;;
74791;SDS011;63319;46.046;17.802;2022-10-31T16:19:18;6.60;;;4.20;;
74791;SDS011;63319;46.046;17.802;2022-10-31T16:22:34;6.50;;;4.40;;
74791;SDS011;63319;46.046;17.802;2022-10-31T16:25:38;7.03;;;4.18;;
74791;SDS011;63319;46.046;17.802;2022-10-31T16:28:49;5.95;;;3.80;;
74791;SDS011;63319;46.046;17.802;2022-10-31T16:32:23;6.10;;;4.10;;
74791;SDS011;63319;46.046;17.802;2022-10-31T16:35:41;7.43;;;4.30;;
74791;SDS011;63319;46.046;17.802;2022-10-31T16:38:47;6.53;;;4.10;;
74791;SDS011;63319;46.046;17.802;2022-10-31T16:41:52;7.65;;;5.30;;
74791;SDS011;63319;46.046;17.802;2022-10-31T16:45:03;6.30;;;4.15;;
74791;SDS011;63319;46.046;17.802;2022-10-31T16:48:10;5.95;;;3.95;;
74791;SDS011;63319;46.046;17.802;2022-10-31T16:51:17;7.47;;;4.63;;
74791;SDS011;63319;46.046;17.802;2022-10-31T16:54:20;7.97;;;5.40;;
74791;SDS011;63319;46.046;17.802;2022-10-31T16:57:25;8.00;;;5.03;;
74791;SDS011;63319;46.046;17.802;2022-10-31T17:00:31;7.07;;;4.15;;
74791;SDS011;63319;46.046;17.802;2022-10-31T17:03:34;7.80;;;5.28;;
74791;SDS011;63319;46.046;17.802;2022-10-31T17:06:38;7.60;;;4.80;;
74791;SDS011;63319;46.046;17.802;2022-10-31T17:09:41;7.80;;;5.07;;
74791;SDS011;63319;46.046;17.802;2022-10-31T17:12:45;8.73;;;5.35;;
74791;SDS011;63319;46.046;17.802;2022-10-31T17:15:52;7.53;;;4.47;;
74791;SDS011;63319;46.046;17.802;2022-10-31T17:18:56;8.13;;;5.25;;
74791;SDS011;63319;46.046;17.802;2022-10-31T17:22:00;8.83;;;5.47;;
74791;SDS011;63319;46.046;17.802;2022-10-31T17:25:05;7.80;;;4.97;;
74791;SDS011;63319;46.046;17.802;2022-10-31T17:28:10;8.75;;;5.85;;
74791;SDS011;63319;46.046;17.802;2022-10-31T17:31:36;8.77;;;5.40;;
74791;SDS011;63319;46.046;17.802;2022-10-31T17:34:40;8.25;;;4.97;;
74791;SDS011;63319;46.046;17.802;2022-10-31T17:37:45;7.13;;;4.67;;
74791;SDS011;63319;46.046;17.802;2022-10-31T17:40:51;8.20;;;5.30;;
74791;SDS011;63319;46.046;17.802;2022-10-31T17:43:56;9.43;;;5.82;;
74791;SDS011;63319;46.046;17.802;2022-10-31T17:47:00;8.80;;;5.70;;
74791;SDS011;63319;46.046;17.802;2022-10-31T17:50:05;11.30;;;7.35;;
74791;SDS011;63319;46.046;17.802;2022-10-31T17:53:08;8.13;;;4.93;;
74791;SDS011;63319;46.046;17.802;2022-10-31T17:56:12;9.50;;;6.28;;
74791;SDS011;63319;46.046;17.802;2022-10-31T17:59:15;8.05;;;5.20;;
74791;SDS011;63319;46.046;17.802;2022-10-31T18:02:24;8.13;;;5.60;;
74791;SDS011;63319;46.046;17.802;2022-10-31T18:05:29;8.65;;;5.70;;
74791;SDS011;63319;46.046;17.802;2022-10-31T18:08:42;8.80;;;5.67;;
74791;SDS011;63319;46.046;17.802;2022-10-31T18:11:48;8.80;;;6.05;;
74791;SDS011;63319;46.046;17.802;2022-10-31T18:14:51;8.57;;;5.68;;
74791;SDS011;63319;46.046;17.802;2022-10-31T18:17:56;9.65;;;6.97;;
74791;SDS011;63319;46.046;17.802;2022-10-31T18:21:01;8.73;;;5.55;;
74791;SDS011;63319;46.046;17.802;2022-10-31T18:24:04;9.23;;;6.00;;
74791;SDS011;63319;46.046;17.802;2022-10-31T18:27:09;7.82;;;4.82;;
74791;SDS011;63319;46.046;17.802;2022-10-31T18:30:12;9.07;;;5.82;;
74791;SDS011;63319;46.046;17.802;2022-10-31T18:33:17;8.15;;;5.70;;
74791;SDS011;63319;46.046;17.802;2022-10-31T18:36:20;8.75;;;6.20;;
74791;SDS011;63319;46.046;17.802;2022-10-31T18:39:25;9.93;;;6.53;;
74791;SDS011;63319;46.046;17.802;2022-10-31T18:42:28;9.88;;;7.13;;
74791;SDS011;63319;46.046;17.802;2022-10-31T18:45:33;8.85;;;5.72;;
74791;SDS011;63319;46.046;17.802;2022-10-31T18:48:49;8.52;;;5.32;;
74791;SDS011;63319;46.046;17.802;2022-10-31T18:51:54;8.77;;;6.28;;
74791;SDS011;63319;46.046;17.802;2022-10-31T18:54:58;9.13;;;6.17;;
74791;SDS011;63319;46.046;17.802;2022-10-31T18:58:02;9.38;;;6.25;;
74791;SDS011;63319;46.046;17.802;2022-10-31T19:01:07;8.60;;;6.07;;
74791;SDS011;63319;46.046;17.802;2022-10-31T19:04:16;8.43;;;5.43;;
74791;SDS011;63319;46.046;17.802;2022-10-31T19:07:19;9.60;;;6.53;;
74791;SDS011;63319;46.046;17.802;2022-10-31T19:10:22;9.93;;;6.80;;
74791;SDS011;63319;46.046;17.802;2022-10-31T19:13:45;9.77;;;6.30;;
74791;SDS011;63319;46.046;17.802;2022-10-31T19:16:49;9.32;;;6.53;;
74791;SDS011;63319;46.046;17.802;2022-10-31T19:19:54;9.82;;;6.28;;
74791;SDS011;63319;46.046;17.802;2022-10-31T19:22:59;9.77;;;6.75;;
74791;SDS011;63319;46.046;17.802;2022-10-31T19:26:03;8.57;;;6.20;;
74791;SDS011;63319;46.046;17.802;2022-10-31T19:29:08;9.30;;;6.40;;
74791;SDS011;63319;46.046;17.802;2022-10-31T19:32:13;9.20;;;6.15;;
74791;SDS011;63319;46.046;17.802;2022-10-31T19:35:17;8.40;;;5.75;;
74791;SDS011;63319;46.046;17.802;2022-10-31T19:38:22;10.23;;;6.97;;
74791;SDS011;63319;46.046;17.802;2022-10-31T19:41:27;9.40;;;6.27;;
74791;SDS011;63319;46.046;17.802;2022-10-31T19:44:32;9.57;;;6.55;;
74791;SDS011;63319;46.046;17.802;2022-10-31T19:47:37;8.80;;;6.43;;
74791;SDS011;63319;46.046;17.802;2022-10-31T19:50:41;10.55;;;6.85;;
74791;SDS011;63319;46.046;17.802;2022-10-31T19:53:45;11.63;;;8.15;;
74791;SDS011;63319;46.046;17.802;2022-10-31T19:56:49;9.23;;;6.33;;
74791;SDS011;63319;46.046;17.802;2022-10-31T19:59:54;10.57;;;7.30;;
74791;SDS011;63319;46.046;17.802;2022-10-31T20:03:09;9.57;;;6.60;;
74791;SDS011;63319;46.046;17.802;2022-10-31T20:06:14;10.60;;;7.57;;
74791;SDS011;63319;46.046;17.802;2022-10-31T20:09:29;10.48;;;6.90;;
74791;SDS011;63319;46.046;17.802;2022-10-31T20:12:52;8.83;;;5.57;;
74791;SDS011;63319;46.046;17.802;2022-10-31T20:15:57;9.85;;;6.70;;
74791;SDS011;63319;46.046;17.802;2022-10-31T20:19:03;9.73;;;6.13;;
74791;SDS011;63319;46.046;17.802;2022-10-31T20:22:07;10.43;;;7.13;;
74791;SDS011;63319;46.046;17.802;2022-10-31T20:25:11;10.25;;;6.95;;
74791;SDS011;63319;46.046;17.802;2022-10-31T20:28:15;8.70;;;5.90;;
74791;SDS011;63319;46.046;17.802;2022-10-31T20:31:22;10.73;;;6.68;;
74791;SDS011;63319;46.046;17.802;2022-10-31T20:34:28;8.80;;;5.75;;
74791;SDS011;63319;46.046;17.802;2022-10-31T20:37:32;10.20;;;6.78;;
74791;SDS011;63319;46.046;17.802;2022-10-31T20:40:36;11.05;;;7.78;;
74791;SDS011;63319;46.046;17.802;2022-10-31T20:43:39;11.30;;;7.57;;
74791;SDS011;63319;46.046;17.802;2022-10-31T20:46:43;11.07;;;7.38;;
74791;SDS011;63319;46.046;17.802;2022-10-31T20:49:47;10.88;;;7.07;;
74791;SDS011;63319;46.046;17.802;2022-10-31T20:52:50;11.43;;;7.70;;
74791;SDS011;63319;46.046;17.802;2022-10-31T20:55:59;11.02;;;7.45;;
74791;SDS011;63319;46.046;17.802;2022-10-31T20:59:17;13.47;;;8.50;;
74791;SDS011;63319;46.046;17.802;2022-10-31T21:02:21;11.82;;;7.50;;
74791;SDS011;63319;46.046;17.802;2022-10-31T21:05:25;11.27;;;7.53;;
74791;SDS011;63319;46.046;17.802;2022-10-31T21:08:28;11.52;;;7.93;;
74791;SDS011;63319;46.046;17.802;2022-10-31T21:11:33;11.20;;;7.10;;
74791;SDS011;63319;46.046;17.802;2022-10-31T21:14:36;11.17;;;6.90;;
74791;SDS011;63319;46.046;17.802;2022-10-31T21:17:39;11.32;;;6.90;;
74791;SDS011;63319;46.046;17.802;2022-10-31T21:20:43;12.60;;;7.90;;
74791;SDS011;63319;46.046;17.802;2022-10-31T21:23:55;12.07;;;7.63;;
74791;SDS011;63319;46.046;17.802;2022-10-31T21:26:59;12.23;;;8.32;;
74791;SDS011;63319;46.046;17.802;2022-10-31T21:30:04;13.27;;;8.20;;
74791;SDS011;63319;46.046;17.802;2022-10-31T21:33:07;13.15;;;8.25;;